Time;durP1;ratioP1;P1;durP2;ratioP2;P2;SDS_P1;SDS_P2;PMS_P1;PMS_P2;Temp;Humidity;BMP_temperature;BMP_pressure;BME280_temperature;BME280_humidity;BME280_pressure;Samples;Min_cycle;Max_cycle;Signal;HPM_P1;HPM_P2
2022/11/19 00:02:09;;;;;;;21.00;12.05;;;;;;;3.21;100.00;100769.63;5070626;28;20068;-49
2022/11/19 00:04:39;;;;;;;19.33;12.00;;;;;;;3.12;100.00;100769.09;5069200;28;20135;-50
2022/11/19 00:07:07;;;;;;;21.42;12.35;;;;;;;3.14;100.00;100773.34;5070215;28;20840;-50
2022/11/19 00:09:35;;;;;;;21.42;12.85;;;;;;;3.12;100.00;100771.72;5068404;28;20052;-51
2022/11/19 00:14:52;;;;;;;20.08;12.02;;;;;;;3.17;100.00;100770.63;5069074;28;20048;-47
2022/11/19 00:17:20;;;;;;;20.83;11.88;;;;;;;3.14;100.00;100770.75;5069066;28;20105;-48
2022/11/19 00:19:49;;;;;;;21.70;12.80;;;;;;;3.12;100.00;100766.50;5069281;28;20056;-48
2022/11/19 00:22:18;;;;;;;22.30;11.90;;;;;;;3.09;100.00;100777.03;5069265;28;20055;-49
2022/11/19 00:24:46;;;;;;;23.45;12.88;;;;;;;3.10;100.00;100776.13;5068455;28;20052;-49
2022/11/19 00:27:14;;;;;;;22.35;12.55;;;;;;;2.99;100.00;100773.91;5067865;28;20049;-48
2022/11/19 00:29:42;;;;;;;20.45;13.05;;;;;;;2.96;100.00;100781.78;5069818;28;20048;-50
2022/11/19 00:32:10;;;;;;;20.38;12.57;;;;;;;3.00;100.00;100783.38;5069940;28;20049;-51
2022/11/19 00:34:38;;;;;;;19.88;12.05;;;;;;;2.99;100.00;100777.34;5068983;28;20052;-51
2022/11/19 00:37:08;;;;;;;21.08;11.95;;;;;;;3.08;100.00;100781.38;5069711;28;20040;-51
2022/11/19 00:39:36;;;;;;;20.33;12.15;;;;;;;3.08;100.00;100783.97;5068087;28;20097;-49
2022/11/19 00:42:04;;;;;;;21.83;12.40;;;;;;;3.06;100.00;100785.75;5069670;28;20044;-49
2022/11/19 00:44:32;;;;;;;20.73;12.35;;;;;;;3.01;100.00;100790.28;5069315;28;20051;-50
2022/11/19 00:47:04;;;;;;;18.90;12.13;;;;;;;2.97;100.00;100786.94;5069817;28;20045;-49
2022/11/19 00:49:33;;;;;;;19.08;12.02;;;;;;;2.92;100.00;100794.03;5067797;28;20048;-48
2022/11/19 00:52:01;;;;;;;19.17;11.15;;;;;;;2.88;100.00;100801.09;5069376;28;20055;-48
2022/11/19 00:54:30;;;;;;;19.67;11.90;;;;;;;2.85;100.00;100801.19;5067271;28;20048;-53
2022/11/19 00:56:59;;;;;;;19.85;11.85;;;;;;;2.98;100.00;100805.97;5068585;28;20072;-51
2022/11/19 00:59:27;;;;;;;21.05;12.77;;;;;;;2.94;100.00;100804.38;5068656;28;20052;-47
2022/11/19 01:01:55;;;;;;;19.90;11.82;;;;;;;3.03;100.00;100798.88;5069040;28;20037;-52
2022/11/19 01:04:23;;;;;;;19.48;12.23;;;;;;;2.86;100.00;100807.22;5068089;28;20064;-49
2022/11/19 01:06:51;;;;;;;18.42;11.07;;;;;;;2.91;100.00;100802.72;5069670;28;20052;-50
2022/11/19 01:09:20;;;;;;;20.65;12.52;;;;;;;2.91;100.00;100799.28;5067184;28;20967;-52
2022/11/19 01:11:50;;;;;;;19.95;12.10;;;;;;;2.86;100.00;100799.44;5069200;28;20503;-52
2022/11/19 01:14:18;;;;;;;19.65;11.80;;;;;;;2.88;100.00;100806.28;5068410;28;20052;-50
2022/11/19 01:16:46;;;;;;;17.60;11.43;;;;;;;2.82;100.00;100813.41;5068942;28;20055;-53
2022/11/19 01:19:15;;;;;;;20.52;11.93;;;;;;;2.86;100.00;100815.88;5067136;28;20053;-52
2022/11/19 01:21:44;;;;;;;21.15;13.60;;;;;;;2.69;100.00;100823.38;5069319;28;20065;-50
2022/11/19 01:24:15;;;;;;;21.23;12.65;;;;;;;2.78;100.00;100817.91;5066794;28;20123;-53
2022/11/19 01:26:43;;;;;;;20.75;12.63;;;;;;;2.73;100.00;100824.97;5069052;28;20067;-52
2022/11/19 01:29:14;;;;;;;22.00;12.52;;;;;;;2.71;100.00;100831.97;5068692;28;20041;-52
2022/11/19 01:31:42;;;;;;;22.23;12.80;;;;;;;2.78;100.00;100828.28;5068956;28;20056;-51
2022/11/19 01:34:10;;;;;;;23.77;14.02;;;;;;;2.74;100.00;100829.28;5067734;28;20044;-52
2022/11/19 01:36:38;;;;;;;21.42;12.48;;;;;;;2.68;100.00;100834.66;5068893;28;20052;-50
2022/11/19 01:39:07;;;;;;;20.23;12.75;;;;;;;2.72;100.00;100833.66;5067262;28;20060;-53
2022/11/19 01:41:35;;;;;;;21.80;13.75;;;;;;;2.71;100.00;100842.34;5068014;28;20049;-53
2022/11/19 01:44:04;;;;;;;23.90;14.13;;;;;;;2.67;100.00;100845.94;5068228;28;20106;-50
2022/11/19 01:46:37;;;;;;;23.35;13.63;;;;;;;2.70;100.00;100844.09;5066718;28;20110;-49
2022/11/19 01:49:08;;;;;;;22.05;12.90;;;;;;;2.66;100.00;100836.47;5067898;28;20067;-49
2022/11/19 01:51:41;;;;;;;25.17;13.55;;;;;;;2.66;100.00;100841.66;5068609;28;20060;-50
2022/11/19 01:54:15;;;;;;;24.23;14.73;;;;;;;2.57;100.00;100844.56;5067014;28;20139;-52
2022/11/19 01:56:43;;;;;;;22.83;14.18;;;;;;;2.59;100.00;100842.75;5068425;28;20044;-52
2022/11/19 01:59:15;;;;;;;23.85;14.15;;;;;;;2.52;100.00;100862.84;5068225;28;20098;-52
2022/11/19 02:01:45;;;;;;;;;;;;;;;2.50;100.00;100852.53;5069330;28;20040;-54
2022/11/19 02:04:16;;;;;;;23.63;13.27;;;;;;;2.42;100.00;100854.50;5067523;28;19924;-53
2022/11/19 02:06:45;;;;;;;24.52;14.82;;;;;;;2.46;100.00;100857.88;5069012;28;20048;-51
2022/11/19 02:09:14;;;;;;;24.65;13.68;;;;;;;2.42;100.00;100857.09;5067493;28;20123;-51
2022/11/19 02:12:12;;;;;;;23.35;13.05;;;;;;;2.44;100.00;100863.13;5072285;28;20048;-46
2022/11/19 02:15:10;;;;;;;23.55;14.07;;;;;;;2.40;100.00;100866.69;5072566;28;20499;-48
2022/11/19 02:17:53;;;;;;;23.00;14.02;;;;;;;2.38;100.00;100865.03;5071388;28;20400;-48
2022/11/19 02:20:45;;;;;;;22.50;14.55;;;;;;;2.38;100.00;100868.47;5071577;28;20048;-52
2022/11/19 02:23:52;;;;;;;24.13;15.35;;;;;;;2.40;100.00;100871.03;5069044;28;20153;-51
2022/11/19 02:26:53;;;;;;;25.02;14.85;;;;;;;2.33;100.00;100873.81;5059855;28;20090;-49
2022/11/19 02:29:54;;;;;;;27.45;16.08;;;;;;;2.26;100.00;100872.28;5054215;28;20446;-49
2022/11/19 02:32:30;;;;;;;25.00;15.10;;;;;;;2.18;100.00;100869.94;5060616;28;20122;-50
2022/11/19 02:35:06;;;;;;;24.50;15.30;;;;;;;2.21;100.00;100874.19;5071853;28;20582;-49
2022/11/19 02:37:43;;;;;;;26.75;15.95;;;;;;;2.19;100.00;100881.16;5071370;28;20044;-49
2022/11/19 02:40:19;;;;;;;29.20;17.23;;;;;;;2.24;100.00;100881.88;5070108;28;20199;-49
2022/11/19 02:42:54;;;;;;;26.45;16.52;;;;;;;2.23;100.00;100884.53;5071716;28;20557;-46
2022/11/19 02:45:26;;;;;;;26.50;15.95;;;;;;;2.16;100.00;100892.47;5071717;28;20044;-48
2022/11/19 02:47:59;;;;;;;28.83;17.73;;;;;;;2.14;100.00;100873.53;5071112;28;20563;-47
2022/11/19 02:50:36;;;;;;;27.90;16.77;;;;;;;2.14;100.00;100878.72;5071325;28;20801;-48
2022/11/19 02:53:04;;;;;;;26.38;16.00;;;;;;;2.10;100.00;100889.22;5069924;28;20123;-54
2022/11/19 02:55:39;;;;;;;31.95;18.00;;;;;;;2.02;100.00;100879.06;5070158;28;20044;-50
2022/11/19 03:04:28;;;;;;;27.17;17.15;;;;;;;2.01;100.00;100878.22;5070921;28;20045;-50
2022/11/19 03:06:38;;;;;;;29.98;17.30;;;;;;;2.07;100.00;100874.56;5071396;28;20502;-48
2022/11/19 03:09:06;;;;;;;29.08;17.27;;;;;;;2.01;100.00;100877.38;5069632;28;20040;-53
2022/11/19 03:11:34;;;;;;;27.13;16.52;;;;;;;2.05;100.00;100871.19;5070635;28;20526;-49
2022/11/19 03:17:05;;;;;;;26.17;16.35;;;;;;;1.96;100.00;100869.69;5070851;28;20056;-53
2022/11/19 03:19:36;;;;;;;;;;;;;;;2.00;100.00;100871.34;5070273;28;20438;-53
2022/11/19 03:22:11;;;;;;;28.33;17.38;;;;;;;1.96;100.00;100874.88;5069903;28;19971;-52
2022/11/19 03:24:43;;;;;;;27.65;17.38;;;;;;;1.89;100.00;100873.38;5068879;28;20040;-51
2022/11/19 03:27:16;;;;;;;29.38;17.65;;;;;;;1.87;100.00;100875.19;5069833;28;20528;-51
2022/11/19 03:29:49;;;;;;;30.67;18.13;;;;;;;1.80;100.00;100882.28;5070315;28;20434;-53
2022/11/19 03:32:21;;;;;;;31.63;17.92;;;;;;;1.79;100.00;100877.97;5070691;28;20036;-54
2022/11/19 03:34:57;;;;;;;29.80;17.45;;;;;;;1.76;100.00;100885.84;5070543;28;20044;-52
2022/11/19 03:37:29;;;;;;;28.50;17.52;;;;;;;1.70;100.00;100893.78;5069922;28;20052;-52
2022/11/19 03:40:00;;;;;;;29.17;18.65;;;;;;;1.69;100.00;100898.13;5068979;28;20491;-52
2022/11/19 03:42:29;;;;;;;30.52;17.65;;;;;;;1.80;100.00;100895.25;5069689;28;20475;-52
2022/11/19 03:45:03;;;;;;;30.10;18.17;;;;;;;1.76;100.00;100900.53;5070531;28;20074;-54
2022/11/19 03:47:35;;;;;;;29.77;18.20;;;;;;;1.73;100.00;100904.06;5070041;28;20094;-54
2022/11/19 03:50:12;;;;;;;30.13;18.00;;;;;;;1.71;100.00;100898.09;5069700;28;20056;-56
2022/11/19 03:52:42;;;;;;;32.47;19.35;;;;;;;1.73;100.00;100906.66;5069934;28;20131;-52
2022/11/19 03:55:11;;;;;;;29.80;18.58;;;;;;;1.80;100.00;100912.53;5068324;28;20143;-52
2022/11/19 03:57:39;;;;;;;28.42;17.63;;;;;;;1.78;100.00;100906.53;5069492;28;20040;-51
2022/11/19 04:00:09;;;;;;;29.20;17.60;;;;;;;1.81;100.00;100909.91;5070264;28;20124;-53
2022/11/19 04:02:37;;;;;;;29.98;17.95;;;;;;;1.76;100.00;100909.19;5070267;28;20044;-51
2022/11/19 04:05:08;;;;;;;28.08;17.30;;;;;;;1.77;100.00;100915.22;5069690;28;20061;-50
2022/11/19 04:07:36;;;;;;;28.77;17.55;;;;;;;1.68;100.00;100918.91;5070180;28;20527;-51
2022/11/19 04:10:07;;;;;;;30.75;18.35;;;;;;;1.69;100.00;100921.47;5068392;28;20048;-54
2022/11/19 04:12:35;;;;;;;29.48;18.40;;;;;;;1.70;100.00;100922.31;5068927;28;20048;-52
2022/11/19 04:15:03;;;;;;;31.40;18.48;;;;;;;1.72;100.00;100920.53;5070206;28;20044;-52
2022/11/19 04:17:31;;;;;;;29.75;18.73;;;;;;;1.69;100.00;100918.00;5069209;28;20072;-50
2022/11/19 04:19:59;;;;;;;30.20;18.63;;;;;;;1.64;100.00;100920.72;5069550;28;20064;-54
2022/11/19 04:22:29;;;;;;;28.98;17.83;;;;;;;1.62;100.00;100925.13;5068140;28;20053;-52
2022/11/19 04:24:57;;;;;;;29.30;17.27;;;;;;;1.58;100.00;100926.09;5068090;28;20051;-52
2022/11/19 04:27:25;;;;;;;29.80;17.80;;;;;;;1.58;100.00;100920.03;5069368;28;20048;-52
2022/11/19 04:29:53;;;;;;;29.73;18.42;;;;;;;1.57;100.00;100928.69;5069787;28;20080;-51
2022/11/19 04:32:21;;;;;;;31.00;18.27;;;;;;;1.57;100.00;100929.56;5068430;28;20048;-53
2022/11/19 04:34:49;;;;;;;34.40;18.38;;;;;;;1.42;100.00;100935.13;5069233;28;20156;-53
2022/11/19 04:37:17;;;;;;;31.65;19.00;;;;;;;1.40;100.00;100934.34;5067379;28;20064;-54
2022/11/19 04:39:46;;;;;;;32.33;19.02;;;;;;;1.38;100.00;100938.69;5067190;28;20048;-52
2022/11/19 04:42:15;;;;;;;36.28;19.73;;;;;;;1.45;100.00;100950.63;5068755;28;20052;-50
2022/11/19 04:44:43;;;;;;;30.42;17.80;;;;;;;1.40;100.00;100949.88;5069503;28;20533;-51
2022/11/19 04:47:11;;;;;;;32.55;18.88;;;;;;;1.42;100.00;100951.56;5069173;28;20079;-53
2022/11/19 04:49:39;;;;;;;32.58;18.80;;;;;;;1.38;100.00;100962.88;5068732;28;20090;-52
2022/11/19 04:52:07;;;;;;;33.00;19.23;;;;;;;1.34;100.00;100954.31;5069515;28;20056;-51
2022/11/19 04:54:35;;;;;;;32.95;19.45;;;;;;;1.27;100.00;100964.88;5065849;28;20044;-53
2022/11/19 04:57:04;;;;;;;34.05;19.50;;;;;;;1.29;100.00;100965.69;5069012;28;20048;-54
2022/11/19 04:59:32;;;;;;;30.75;18.23;;;;;;;1.30;100.00;100957.06;5068729;28;20052;-53
2022/11/19 05:02:01;;;;;;;30.77;18.02;;;;;;;1.32;100.00;100968.22;5069286;28;20048;-55
2022/11/19 05:04:29;;;;;;;29.17;17.77;;;;;;;1.30;100.00;100963.06;5068326;28;20067;-52
2022/11/19 05:06:57;;;;;;;33.92;20.67;;;;;;;1.37;100.00;100971.53;5069202;28;20071;-52
2022/11/19 05:09:25;;;;;;;35.03;19.95;;;;;;;1.34;100.00;100969.88;5067108;28;20513;-52
2022/11/19 05:11:53;;;;;;;31.40;19.10;;;;;;;1.31;100.00;100969.09;5068909;28;20565;-48
2022/11/19 05:14:22;;;;;;;35.15;18.95;;;;;;;1.22;100.00;100964.16;5068692;28;20464;-52
2022/11/19 05:16:57;;;;;;;31.13;19.05;;;;;;;1.30;100.00;100970.84;5069356;28;20048;-53
2022/11/19 05:19:25;;;;;;;33.13;19.10;;;;;;;1.31;100.00;100977.75;5068087;28;20101;-53
2022/11/19 05:21:53;;;;;;;31.45;18.85;;;;;;;1.32;100.00;100966.50;5068814;28;20527;-50
2022/11/19 05:24:21;;;;;;;34.40;19.42;;;;;;;1.23;100.00;100969.31;5066286;28;20472;-49
2022/11/19 05:26:49;;;;;;;30.77;18.92;;;;;;;1.23;100.00;100976.19;5068782;28;20082;-52
2022/11/19 05:29:17;;;;;;;31.42;18.98;;;;;;;1.21;100.00;100975.41;5068541;28;20047;-52
2022/11/19 05:31:47;;;;;;;35.50;19.85;;;;;;;1.24;100.00;100973.59;5068968;28;20056;-51
2022/11/19 05:34:15;;;;;;;32.28;19.50;;;;;;;1.17;100.00;100977.22;5067518;28;20115;-50
2022/11/19 05:36:43;;;;;;;32.97;18.33;;;;;;;1.13;100.00;100980.75;5069008;28;20056;-50
2022/11/19 05:39:11;;;;;;;30.70;18.98;;;;;;;1.01;100.00;100987.94;5067061;28;20051;-50
2022/11/19 05:41:47;;;;;;;30.13;18.05;;;;;;;1.10;100.00;100993.78;5068707;28;20549;-52
2022/11/19 05:44:15;;;;;;;31.33;18.13;;;;;;;1.07;100.00;100996.47;5068773;28;20045;-52
2022/11/19 05:46:43;;;;;;;32.55;18.38;;;;;;;1.10;100.00;100996.38;5072707;28;20102;-51
2022/11/19 05:49:12;;;;;;;31.33;17.98;;;;;;;1.09;100.00;101000.72;5072102;28;20079;-52
2022/11/19 05:51:41;;;;;;;29.05;17.23;;;;;;;1.18;100.00;101000.47;5072699;28;20040;-52
2022/11/19 05:54:09;;;;;;;30.02;17.48;;;;;;;1.14;100.00;101004.03;5070570;28;20131;-53
2022/11/19 05:56:37;;;;;;;32.58;18.15;;;;;;;1.04;100.00;101001.69;5071091;28;20135;-54
2022/11/19 05:59:05;;;;;;;30.83;17.83;;;;;;;1.08;100.00;101004.19;5072531;28;20072;-52
2022/11/19 06:01:33;;;;;;;30.55;18.23;;;;;;;0.97;100.00;101008.78;5072096;28;20040;-51
2022/11/19 06:04:01;;;;;;;33.72;19.05;;;;;;;0.93;100.00;101009.72;5071655;28;20430;-50
2022/11/19 06:06:31;;;;;;;33.03;19.27;;;;;;;0.84;100.00;101011.63;5072049;28;20036;-51
2022/11/19 06:08:59;;;;;;;32.55;17.77;;;;;;;0.93;100.00;101025.28;5070554;28;20047;-52
2022/11/19 06:14:13;;;;;;;29.48;18.17;;;;;;;0.91;100.00;101033.03;5071441;28;20508;-51
2022/11/19 06:16:41;;;;;;;29.73;17.30;;;;;;;0.91;100.00;101027.88;5072043;28;20131;-55
2022/11/19 06:19:09;;;;;;;30.92;18.17;;;;;;;0.93;100.00;101033.03;5071424;28;20127;-51
2022/11/19 06:21:39;;;;;;;31.02;18.25;;;;;;;0.89;100.00;101032.25;5071532;28;20036;-49
2022/11/19 06:24:07;;;;;;;33.78;18.45;;;;;;;0.76;100.00;101046.34;5070028;28;20048;-48
2022/11/19 06:26:35;;;;;;;30.13;17.70;;;;;;;0.73;100.00;101039.47;5071391;28;20842;-49
2022/11/19 06:29:06;;;;;;;30.23;17.13;;;;;;;0.70;100.00;101044.72;5071585;28;20499;-49
2022/11/19 06:31:34;;;;;;;30.17;17.85;;;;;;;0.80;100.00;101050.56;5071303;28;20049;-52
2022/11/19 06:34:02;;;;;;;32.05;18.13;;;;;;;0.87;100.00;101052.13;5070907;28;20596;-51
2022/11/19 06:36:30;;;;;;;31.42;17.45;;;;;;;0.86;100.00;101057.34;5071110;28;20135;-49
2022/11/19 06:39:09;;;;;;;32.20;18.95;;;;;;;0.83;100.00;101061.72;5069919;28;20048;-49
2022/11/19 06:41:37;;;;;;;33.58;17.70;;;;;;;0.83;100.00;101064.31;5071381;28;20048;-50
2022/11/19 06:44:06;;;;;;;29.08;16.85;;;;;;;0.88;100.00;101064.19;5071823;28;20063;-50
2022/11/19 06:46:34;;;;;;;31.60;17.25;;;;;;;0.76;100.00;101067.91;5071413;28;20443;-49
2022/11/19 06:49:04;;;;;;;30.25;18.02;;;;;;;0.75;100.00;101068.81;5071680;28;20056;-49
2022/11/19 06:51:33;;;;;;;30.20;17.13;;;;;;;0.64;100.00;101074.19;5071027;28;20047;-50
2022/11/19 06:54:01;;;;;;;28.40;17.88;;;;;;;0.59;100.00;101075.19;5070060;28;20090;-46
2022/11/19 06:56:30;;;;;;;34.30;18.17;;;;;;;0.58;100.00;101076.88;5070279;28;20049;-53
2022/11/19 06:58:58;;;;;;;32.42;18.00;;;;;;;0.61;100.00;101087.19;5071737;28;20106;-53
2022/11/19 07:01:26;;;;;;;29.88;16.63;;;;;;;0.52;100.00;101079.63;5070901;28;20045;-53
2022/11/19 07:03:54;;;;;;;30.73;17.48;;;;;;;0.53;100.00;101088.22;5070750;28;20061;-53
2022/11/19 07:06:22;;;;;;;30.48;17.70;;;;;;;0.56;100.00;101090.75;5070647;28;20491;-54
2022/11/19 07:08:50;;;;;;;30.92;17.10;;;;;;;0.51;100.00;101101.19;5069677;28;20076;-50
2022/11/19 07:11:28;;;;;;;32.88;17.70;;;;;;;0.42;100.00;101097.03;5070222;28;20384;-53
2022/11/19 07:13:58;;;;;;;30.80;17.65;;;;;;;0.50;100.00;101100.34;5071256;28;20048;-53
2022/11/19 07:16:29;;;;;;;29.63;16.23;;;;;;;0.46;100.00;101097.84;5070825;28;20441;-52
2022/11/19 07:18:58;;;;;;;30.80;16.95;;;;;;;0.53;100.00;101101.16;5070821;28;20418;-53
2022/11/19 07:21:27;;;;;;;29.55;16.88;;;;;;;0.42;100.00;101097.03;5070303;28;20530;-53
2022/11/19 07:23:56;;;;;;;33.17;18.23;;;;;;;0.38;100.00;101100.56;5069792;28;20048;-52
2022/11/19 07:26:25;;;;;;;29.30;17.00;;;;;;;0.33;100.00;101092.91;5070265;28;20045;-53
2022/11/19 07:28:53;;;;;;;30.98;16.95;;;;;;;0.39;100.00;101097.09;5070714;28;20048;-53
2022/11/19 07:31:23;;;;;;;30.90;16.80;;;;;;;0.42;100.00;101109.13;5070505;28;20402;-51
2022/11/19 07:33:51;;;;;;;30.10;17.10;;;;;;;0.44;100.00;101115.16;5069818;28;20143;-56
2022/11/19 07:36:19;;;;;;;31.80;17.13;;;;;;;0.40;100.00;101114.34;5068878;28;20054;-51
2022/11/19 07:38:49;;;;;;;31.00;17.02;;;;;;;0.37;100.00;101118.72;5069100;28;20768;-53
2022/11/19 07:44:02;;;;;;;28.25;16.42;;;;;;;0.39;100.00;101125.56;5070481;28;20089;-51
2022/11/19 07:46:32;;;;;;;28.98;16.52;;;;;;;0.40;100.00;101129.88;5068551;28;20159;-53
2022/11/19 07:49:00;;;;;;;29.15;16.13;;;;;;;0.35;100.00;101136.84;5070008;28;20060;-53
2022/11/19 07:51:28;;;;;;;28.35;15.93;;;;;;;0.41;100.00;101141.06;5069058;28;20127;-52
2022/11/19 07:53:57;;;;;;;28.52;16.25;;;;;;;0.23;100.00;101150.00;5068275;28;20507;-50
2022/11/19 07:56:25;;;;;;;27.85;16.10;;;;;;;0.21;100.00;101142.28;5069791;28;20517;-51
2022/11/19 07:58:53;;;;;;;28.60;16.15;;;;;;;0.20;100.00;101158.66;5070220;28;20052;-53
2022/11/19 08:01:23;;;;;;;29.05;15.10;;;;;;;0.11;100.00;101145.88;5069634;28;20475;-53
2022/11/19 08:03:53;;;;;;;26.02;15.30;;;;;;;0.14;100.00;101151.03;5069104;28;20873;-51
2022/11/19 08:06:25;;;;;;;26.60;15.15;;;;;;;0.08;100.00;101146.81;5069823;28;20080;-53
2022/11/19 08:08:54;;;;;;;25.80;14.23;;;;;;;-0.01;100.00;101158.16;5068522;28;20044;-48
2022/11/19 08:11:25;;;;;;;26.73;14.38;;;;;;;0.04;100.00;101150.34;5069344;28;20041;-50
2022/11/19 08:13:53;;;;;;;28.67;16.40;;;;;;;-0.03;100.00;101166.81;5069809;28;20557;-50
2022/11/19 08:19:10;;;;;;;26.00;14.05;;;;;;;-0.19;100.00;101161.88;5069487;28;20109;-52
2022/11/19 08:21:41;;;;;;;26.30;15.05;;;;;;;-0.12;100.00;101165.22;5069616;28;20499;-50
2022/11/19 08:24:10;;;;;;;25.08;14.55;;;;;;;-0.22;100.00;101185.22;5068095;28;20518;-47
2022/11/19 08:26:39;;;;;;;23.95;14.00;;;;;;;-0.26;100.00;101180.97;5069506;28;20063;-50
2022/11/19 08:29:08;;;;;;;27.30;14.38;;;;;;;-0.18;100.00;101183.41;5069909;28;20056;-50
2022/11/19 08:31:44;;;;;;;27.17;14.60;;;;;;;-0.14;100.00;101194.56;5069664;28;20133;-52
2022/11/19 08:34:14;;;;;;;26.50;13.93;;;;;;;-0.20;100.00;101191.19;5068905;28;20055;-47
2022/11/19 08:36:42;;;;;;;24.52;13.40;;;;;;;-0.15;100.00;101195.44;5068271;28;20052;-48
2022/11/19 08:39:11;;;;;;;24.33;12.95;;;;;;;-0.11;100.00;101204.88;5068139;28;20523;-50
2022/11/19 08:44:28;;;;;;;25.42;13.75;;;;;;;0.08;100.00;101193.38;5068761;28;20118;-50
2022/11/19 08:46:56;;;;;;;24.67;13.50;;;;;;;-0.02;100.00;101179.72;5069930;28;20094;-49
2022/11/19 08:49:25;;;;;;;24.80;13.75;;;;;;;0.04;100.00;101193.44;5068464;28;20093;-47
2022/11/19 08:51:53;;;;;;;23.13;13.35;;;;;;;0.04;100.00;101188.25;5069255;28;20394;-49
2022/11/19 08:54:21;;;;;;;25.63;13.32;;;;;;;0.00;100.00;101197.81;5067501;28;20079;-48
2022/11/19 08:56:50;;;;;;;22.70;12.85;;;;;;;-0.01;100.00;101203.84;5069146;28;20076;-48
2022/11/19 08:59:20;;;;;;;24.05;12.40;;;;;;;0.12;100.00;101195.03;5068847;28;20040;-49
2022/11/19 09:01:49;;;;;;;22.13;12.57;;;;;;;0.08;100.00;101195.97;5069318;28;20053;-49
2022/11/19 09:04:17;;;;;;;27.40;14.07;;;;;;;-0.03;100.00;101197.84;5068241;28;20056;-50
2022/11/19 09:06:47;;;;;;;22.55;12.85;;;;;;;-0.02;100.00;101200.41;5069444;28;20047;-48
2022/11/19 09:09:18;;;;;;;24.00;13.55;;;;;;;-0.07;100.00;101203.94;5067113;28;20057;-50
2022/11/19 09:11:46;;;;;;;24.40;13.05;;;;;;;-0.19;100.00;101203.25;5069155;28;20843;-49
2022/11/19 09:14:14;;;;;;;21.98;12.57;;;;;;;-0.06;100.00;101209.09;5068780;28;20480;-47
2022/11/19 09:16:42;;;;;;;22.05;12.65;;;;;;;0.17;100.00;101216.50;5068945;28;20036;-48
2022/11/19 09:19:10;;;;;;;23.33;11.93;;;;;;;0.24;100.00;101206.91;5070474;28;20056;-49
2022/11/19 09:21:39;;;;;;;21.02;12.25;;;;;;;0.28;100.00;101212.88;5072831;28;20048;-48
2022/11/19 09:24:08;;;;;;;22.33;12.00;;;;;;;0.33;100.00;101214.50;5071305;28;20562;-50
2022/11/19 09:26:36;;;;;;;22.65;11.82;;;;;;;0.52;100.00;101211.63;5072329;28;20146;-53
2022/11/19 09:29:04;;;;;;;20.73;11.95;;;;;;;0.55;100.00;101221.06;5072677;28;20515;-53
2022/11/19 09:31:32;;;;;;;20.63;10.90;;;;;;;0.58;100.00;101226.19;5072549;28;20050;-54
2022/11/19 09:34:00;;;;;;;21.48;11.85;;;;;;;0.60;100.00;101214.06;5072717;28;20048;-52
2022/11/19 09:36:28;;;;;;;21.38;12.35;;;;;;;0.68;100.00;101232.91;5072546;28;20051;-52
2022/11/19 09:38:57;;;;;;;20.80;11.38;;;;;;;0.87;100.00;101227.41;5071548;28;20048;-53
2022/11/19 09:41:50;;;;;;;19.17;11.05;;;;;;;1.04;100.00;101225.34;5072309;28;20102;-52
2022/11/19 09:44:41;;;;;;;19.17;11.57;;;;;;;1.42;100.00;101234.09;5072014;28;20072;-52
2022/11/19 09:47:23;;;;;;;19.33;11.15;;;;;;;1.35;100.00;101240.28;5072439;28;20076;-53
2022/11/19 09:50:03;;;;;;;19.52;10.82;;;;;;;1.30;100.00;101242.97;5072262;28;20435;-51
2022/11/19 09:52:37;;;;;;;20.88;11.70;;;;;;;1.55;100.00;101250.22;5071915;28;20044;-52
2022/11/19 09:55:06;;;;;;;18.92;11.25;;;;;;;1.46;100.00;101256.47;5071342;28;20110;-53
2022/11/19 09:57:43;;;;;;;18.45;10.63;;;;;;;1.50;100.00;101258.13;5071556;28;20360;-53
2022/11/19 10:00:17;;;;;;;17.73;10.88;;;;;;;1.32;100.00;101255.88;5071938;28;20056;-51
2022/11/19 10:02:45;;;;;;;16.70;10.13;;;;;;;1.13;100.00;101257.97;5072770;28;20036;-53
2022/11/19 10:05:15;;;;;;;18.85;10.85;;;;;;;1.20;100.00;101261.31;5071674;28;20506;-51
2022/11/19 10:07:55;;;;;;;18.08;9.77;;;;;;;1.12;100.00;101267.50;5072607;28;20056;-50
2022/11/19 10:10:35;;;;;;;18.63;10.27;;;;;;;1.13;100.00;101256.25;5071442;28;20044;-53
2022/11/19 10:13:18;;;;;;;17.58;10.75;;;;;;;1.06;100.00;101266.75;5071796;28;20452;-53
2022/11/19 10:16:01;;;;;;;14.77;9.07;;;;;;;0.97;100.00;101257.44;5072416;28;20048;-51
2022/11/19 10:18:40;;;;;;;17.05;10.10;;;;;;;1.08;100.00;101262.38;5070834;28;20106;-50
2022/11/19 10:21:15;;;;;;;18.35;10.05;;;;;;;1.09;100.00;101254.63;5071645;28;20045;-51
2022/11/19 10:23:49;;;;;;;16.70;9.50;;;;;;;1.22;100.00;101259.56;5070189;28;20036;-50
2022/11/19 10:26:19;;;;;;;15.15;9.40;;;;;;;1.01;100.00;101256.50;5071886;28;20045;-54
2022/11/19 10:28:55;;;;;;;16.70;10.05;;;;;;;1.25;100.00;101257.75;5071968;28;20068;-50
2022/11/19 10:31:29;;;;;;;15.38;9.02;;;;;;;1.31;100.00;101261.94;5070749;28;20033;-52
2022/11/19 10:34:05;;;;;;;16.08;8.85;;;;;;;1.22;100.00;101275.09;5071401;28;20050;-52
2022/11/19 10:36:40;;;;;;;17.33;9.57;;;;;;;1.19;100.00;101263.06;5071142;28;20045;-53
2022/11/19 10:39:17;;;;;;;15.77;9.75;;;;;;;1.18;100.00;101264.78;5070126;28;20068;-54
2022/11/19 10:41:52;;;;;;;14.45;8.75;;;;;;;1.16;100.00;101257.94;5071493;28;20048;-54
2022/11/19 10:44:38;;;;;;;16.13;9.15;;;;;;;1.21;100.00;101247.47;5071020;28;20102;-53
2022/11/19 10:47:12;;;;;;;15.02;8.93;;;;;;;1.18;100.00;101248.38;5071762;28;20083;-52
2022/11/19 10:49:42;;;;;;;14.85;8.77;;;;;;;1.33;100.00;101257.59;5070493;28;20056;-53
2022/11/19 10:52:26;;;;;;;16.40;8.98;;;;;;;1.33;100.00;101253.25;5071373;28;20049;-53
2022/11/19 10:54:59;;;;;;;14.63;8.00;;;;;;;1.44;100.00;101252.19;5068589;28;20052;-51
2022/11/19 10:57:31;;;;;;;17.50;9.75;;;;;;;1.35;100.00;101256.69;5070960;28;20484;-52
2022/11/19 11:00:01;;;;;;;15.02;8.52;;;;;;;1.39;100.00;101247.13;5071801;28;20045;-52
2022/11/19 11:02:40;;;;;;;16.05;9.27;;;;;;;1.34;100.00;101256.72;5070972;28;20044;-53
2022/11/19 11:05:11;;;;;;;16.08;8.95;;;;;;;1.38;100.00;101253.19;5070700;28;20055;-54
2022/11/19 11:08:01;;;;;;;15.63;9.05;;;;;;;1.39;100.00;101252.31;5071218;28;20048;-53
2022/11/19 11:10:34;;;;;;;19.27;9.55;;;;;;;1.45;100.00;101251.31;5067807;28;20144;-53
2022/11/19 11:16:08;;;;;;;16.65;9.32;;;;;;;1.49;100.00;101252.97;5071021;28;20051;-52
2022/11/19 11:18:39;;;;;;;14.65;8.73;;;;;;;1.42;100.00;101247.06;5069853;28;20130;-53
2022/11/19 11:21:12;;;;;;;15.30;8.85;;;;;;;1.58;100.00;101244.13;5071017;28;20099;-53
2022/11/19 11:23:50;;;;;;;15.85;8.73;;;;;;;1.62;100.00;101249.22;5068997;28;20056;-50
2022/11/19 11:26:22;;;;;;;13.95;8.98;;;;;;;1.59;100.00;101251.03;5070226;28;20044;-50
2022/11/19 11:28:56;;;;;;;14.70;8.68;;;;;;;1.50;100.00;101242.56;5070808;28;20048;-51
2022/11/19 11:31:34;;;;;;;17.58;9.32;;;;;;;1.42;100.00;101251.34;5070881;28;20059;-53
2022/11/19 11:34:04;;;;;;;14.45;9.00;;;;;;;1.34;100.00;101248.94;5070536;28;20079;-53
2022/11/19 11:36:35;;;;;;;13.82;8.77;;;;;;;1.35;100.00;101248.06;5070692;28;20049;-52
2022/11/19 11:39:05;;;;;;;15.50;8.93;;;;;;;1.41;100.00;101249.69;5069440;28;20091;-54
2022/11/19 11:41:37;;;;;;;14.50;8.88;;;;;;;1.51;100.00;101251.19;5069444;28;20091;-51
2022/11/19 11:44:27;;;;;;;14.65;8.57;;;;;;;1.47;100.00;101244.34;5069912;28;20051;-54
2022/11/19 11:47:00;;;;;;;18.73;10.48;;;;;;;1.39;100.00;101236.75;5070735;28;20051;-53
2022/11/19 11:49:30;;;;;;;;;;;;;;;1.48;100.00;101235.69;5070018;28;20109;-54
2022/11/19 11:52:07;;;;;;;16.05;8.23;;;;;;;1.45;100.00;101234.00;5070618;28;20428;-51
2022/11/19 11:54:36;;;;;;;17.13;8.98;;;;;;;1.56;100.00;101232.94;5067363;28;20037;-49